sensor_id;sensor_type;location;lat;lon;timestamp;temperature;humidity
40960;DHT22;27842;52.272;8.052;2022-08-25T00:01:42;26.50;54.00
40960;DHT22;27842;52.272;8.052;2022-08-25T00:04:08;26.50;53.90
40960;DHT22;27842;52.272;8.052;2022-08-25T00:06:35;26.40;54.00
40960;DHT22;27842;52.272;8.052;2022-08-25T00:09:00;26.40;54.00
40960;DHT22;27842;52.272;8.052;2022-08-25T00:11:27;26.40;54.00
40960;DHT22;27842;52.272;8.052;2022-08-25T00:13:56;26.40;54.00
40960;DHT22;27842;52.272;8.052;2022-08-25T00:16:22;26.40;54.00
40960;DHT22;27842;52.272;8.052;2022-08-25T00:18:49;26.30;54.00
40960;DHT22;27842;52.272;8.052;2022-08-25T00:21:16;26.30;54.10
40960;DHT22;27842;52.272;8.052;2022-08-25T00:23:42;26.30;54.10
40960;DHT22;27842;52.272;8.052;2022-08-25T00:26:09;26.30;54.10
40960;DHT22;27842;52.272;8.052;2022-08-25T00:28:35;26.30;54.10
40960;DHT22;27842;52.272;8.052;2022-08-25T00:31:01;26.20;54.20
40960;DHT22;27842;52.272;8.052;2022-08-25T00:33:27;26.20;54.10
40960;DHT22;27842;52.272;8.052;2022-08-25T00:35:53;26.20;54.20
40960;DHT22;27842;52.272;8.052;2022-08-25T00:38:20;26.10;54.20
40960;DHT22;27842;52.272;8.052;2022-08-25T00:40:46;26.10;54.20
40960;DHT22;27842;52.272;8.052;2022-08-25T00:43:34;26.10;55.00
40960;DHT22;27842;52.272;8.052;2022-08-25T00:46:00;26.10;54.50
40960;DHT22;27842;52.272;8.052;2022-08-25T00:48:25;26.00;54.50
40960;DHT22;27842;52.272;8.052;2022-08-25T00:50:50;25.90;54.50
40960;DHT22;27842;52.272;8.052;2022-08-25T00:53:16;25.90;54.60
40960;DHT22;27842;52.272;8.052;2022-08-25T00:55:41;25.90;54.60
40960;DHT22;27842;52.272;8.052;2022-08-25T00:58:12;25.90;54.70
40960;DHT22;27842;52.272;8.052;2022-08-25T01:00:41;25.80;54.80
40960;DHT22;27842;52.272;8.052;2022-08-25T01:03:07;25.80;54.90
40960;DHT22;27842;52.272;8.052;2022-08-25T01:05:33;25.70;54.80
40960;DHT22;27842;52.272;8.052;2022-08-25T01:07:59;25.70;54.90
40960;DHT22;27842;52.272;8.052;2022-08-25T01:10:27;25.70;55.00
40960;DHT22;27842;52.272;8.052;2022-08-25T01:12:54;25.60;55.10
40960;DHT22;27842;52.272;8.052;2022-08-25T01:15:21;25.60;55.10
40960;DHT22;27842;52.272;8.052;2022-08-25T01:17:47;25.60;55.20
40960;DHT22;27842;52.272;8.052;2022-08-25T01:20:14;25.50;55.10
40960;DHT22;27842;52.272;8.052;2022-08-25T01:22:40;25.50;55.40
40960;DHT22;27842;52.272;8.052;2022-08-25T01:27:55;25.50;55.30
40960;DHT22;27842;52.272;8.052;2022-08-25T01:30:21;25.40;55.30
40960;DHT22;27842;52.272;8.052;2022-08-25T01:32:47;25.40;55.40
40960;DHT22;27842;52.272;8.052;2022-08-25T01:35:13;25.40;55.50
40960;DHT22;27842;52.272;8.052;2022-08-25T01:37:38;25.40;55.60
40960;DHT22;27842;52.272;8.052;2022-08-25T01:40:04;25.30;55.60
40960;DHT22;27842;52.272;8.052;2022-08-25T01:42:41;25.30;55.70
40960;DHT22;27842;52.272;8.052;2022-08-25T01:45:07;25.30;55.70
40960;DHT22;27842;52.272;8.052;2022-08-25T01:47:32;25.20;55.70
40960;DHT22;27842;52.272;8.052;2022-08-25T01:49:58;25.20;55.80
40960;DHT22;27842;52.272;8.052;2022-08-25T01:54:52;25.10;55.80
40960;DHT22;27842;52.272;8.052;2022-08-25T01:57:17;25.10;55.90
40960;DHT22;27842;52.272;8.052;2022-08-25T01:59:43;25.10;55.90
40960;DHT22;27842;52.272;8.052;2022-08-25T02:02:09;25.10;56.00
40960;DHT22;27842;52.272;8.052;2022-08-25T02:04:34;25.10;56.10
40960;DHT22;27842;52.272;8.052;2022-08-25T02:07:00;25.00;56.00
40960;DHT22;27842;52.272;8.052;2022-08-25T02:09:27;24.90;56.10
40960;DHT22;27842;52.272;8.052;2022-08-25T02:11:52;24.90;56.30
40960;DHT22;27842;52.272;8.052;2022-08-25T02:14:18;24.80;56.40
40960;DHT22;27842;52.272;8.052;2022-08-25T02:16:45;24.80;56.60
40960;DHT22;27842;52.272;8.052;2022-08-25T02:19:12;24.80;56.50
40960;DHT22;27842;52.272;8.052;2022-08-25T02:21:38;24.70;56.50
40960;DHT22;27842;52.272;8.052;2022-08-25T02:24:04;24.70;56.70
40960;DHT22;27842;52.272;8.052;2022-08-25T02:26:30;24.70;56.60
40960;DHT22;27842;52.272;8.052;2022-08-25T02:28:56;24.70;56.80
40960;DHT22;27842;52.272;8.052;2022-08-25T02:31:22;24.60;56.80
40960;DHT22;27842;52.272;8.052;2022-08-25T02:33:48;24.60;57.60
40960;DHT22;27842;52.272;8.052;2022-08-25T02:36:14;24.50;56.90
40960;DHT22;27842;52.272;8.052;2022-08-25T02:38:40;24.50;57.10
40960;DHT22;27842;52.272;8.052;2022-08-25T02:41:11;24.50;57.20
40960;DHT22;27842;52.272;8.052;2022-08-25T02:43:38;24.40;57.30
40960;DHT22;27842;52.272;8.052;2022-08-25T02:46:03;24.40;57.30
40960;DHT22;27842;52.272;8.052;2022-08-25T02:48:29;24.40;57.20
40960;DHT22;27842;52.272;8.052;2022-08-25T02:50:58;24.40;57.40
40960;DHT22;27842;52.272;8.052;2022-08-25T02:53:23;24.30;57.30
40960;DHT22;27842;52.272;8.052;2022-08-25T02:55:49;24.30;57.30
40960;DHT22;27842;52.272;8.052;2022-08-25T02:58:14;24.30;57.30
40960;DHT22;27842;52.272;8.052;2022-08-25T03:00:40;24.30;57.70
40960;DHT22;27842;52.272;8.052;2022-08-25T03:03:05;24.30;57.50
40960;DHT22;27842;52.272;8.052;2022-08-25T03:05:31;24.30;57.60
40960;DHT22;27842;52.272;8.052;2022-08-25T03:07:56;24.30;57.50
40960;DHT22;27842;52.272;8.052;2022-08-25T03:10:22;24.20;57.50
40960;DHT22;27842;52.272;8.052;2022-08-25T03:12:47;24.20;57.60
40960;DHT22;27842;52.272;8.052;2022-08-25T03:15:14;24.20;57.60
40960;DHT22;27842;52.272;8.052;2022-08-25T03:17:43;24.10;57.70
40960;DHT22;27842;52.272;8.052;2022-08-25T03:20:09;24.10;57.80
40960;DHT22;27842;52.272;8.052;2022-08-25T03:22:34;24.10;57.80
40960;DHT22;27842;52.272;8.052;2022-08-25T03:25:01;24.10;57.90
40960;DHT22;27842;52.272;8.052;2022-08-25T03:27:45;24.00;58.00
40960;DHT22;27842;52.272;8.052;2022-08-25T03:30:11;24.00;58.00
40960;DHT22;27842;52.272;8.052;2022-08-25T03:32:36;24.00;58.00
40960;DHT22;27842;52.272;8.052;2022-08-25T03:35:02;24.00;58.00
40960;DHT22;27842;52.272;8.052;2022-08-25T03:37:28;24.00;58.10
40960;DHT22;27842;52.272;8.052;2022-08-25T03:39:53;24.00;58.10
40960;DHT22;27842;52.272;8.052;2022-08-25T03:42:19;23.90;58.20
40960;DHT22;27842;52.272;8.052;2022-08-25T03:44:44;23.80;58.30
40960;DHT22;27842;52.272;8.052;2022-08-25T03:47:10;23.80;58.40
40960;DHT22;27842;52.272;8.052;2022-08-25T03:49:35;23.70;58.40
40960;DHT22;27842;52.272;8.052;2022-08-25T03:52:01;23.70;58.40
40960;DHT22;27842;52.272;8.052;2022-08-25T03:54:26;23.80;58.60
40960;DHT22;27842;52.272;8.052;2022-08-25T03:56:52;23.70;58.60
40960;DHT22;27842;52.272;8.052;2022-08-25T03:59:18;23.60;59.30
40960;DHT22;27842;52.272;8.052;2022-08-25T04:01:44;23.60;58.70
40960;DHT22;27842;52.272;8.052;2022-08-25T04:04:10;23.60;58.80
40960;DHT22;27842;52.272;8.052;2022-08-25T04:06:40;23.60;58.90
40960;DHT22;27842;52.272;8.052;2022-08-25T04:09:06;23.60;58.80
40960;DHT22;27842;52.272;8.052;2022-08-25T04:11:32;23.60;58.90
40960;DHT22;27842;52.272;8.052;2022-08-25T04:13:58;23.50;58.90
40960;DHT22;27842;52.272;8.052;2022-08-25T04:16:26;23.50;59.00
40960;DHT22;27842;52.272;8.052;2022-08-25T04:18:53;23.40;59.30
40960;DHT22;27842;52.272;8.052;2022-08-25T04:21:19;23.40;59.20
40960;DHT22;27842;52.272;8.052;2022-08-25T04:23:45;23.40;59.30
40960;DHT22;27842;52.272;8.052;2022-08-25T04:26:20;23.30;59.60
40960;DHT22;27842;52.272;8.052;2022-08-25T04:28:46;23.30;60.30
40960;DHT22;27842;52.272;8.052;2022-08-25T04:31:12;23.20;59.60
40960;DHT22;27842;52.272;8.052;2022-08-25T04:33:41;23.10;59.60
40960;DHT22;27842;52.272;8.052;2022-08-25T04:36:07;23.10;59.70
40960;DHT22;27842;52.272;8.052;2022-08-25T04:38:36;23.10;59.80
40960;DHT22;27842;52.272;8.052;2022-08-25T04:41:02;23.10;59.80
40960;DHT22;27842;52.272;8.052;2022-08-25T04:43:28;23.00;59.90
40960;DHT22;27842;52.272;8.052;2022-08-25T04:45:54;23.00;60.00
40960;DHT22;27842;52.272;8.052;2022-08-25T04:48:20;23.00;60.00
40960;DHT22;27842;52.272;8.052;2022-08-25T04:50:46;23.00;60.10
40960;DHT22;27842;52.272;8.052;2022-08-25T04:53:11;23.00;60.10
40960;DHT22;27842;52.272;8.052;2022-08-25T04:55:40;23.00;60.30
40960;DHT22;27842;52.272;8.052;2022-08-25T04:58:07;23.00;60.20
40960;DHT22;27842;52.272;8.052;2022-08-25T05:00:33;23.00;60.30
40960;DHT22;27842;52.272;8.052;2022-08-25T05:03:00;23.00;60.40
40960;DHT22;27842;52.272;8.052;2022-08-25T05:05:25;23.00;60.40
40960;DHT22;27842;52.272;8.052;2022-08-25T05:07:50;23.00;60.10
40960;DHT22;27842;52.272;8.052;2022-08-25T05:10:16;23.00;60.10
40960;DHT22;27842;52.272;8.052;2022-08-25T05:12:42;23.10;60.10
40960;DHT22;27842;52.272;8.052;2022-08-25T05:15:07;23.10;60.10
40960;DHT22;27842;52.272;8.052;2022-08-25T05:17:53;23.10;60.20
40960;DHT22;27842;52.272;8.052;2022-08-25T05:20:19;23.10;60.10
40960;DHT22;27842;52.272;8.052;2022-08-25T05:22:44;23.10;60.10
40960;DHT22;27842;52.272;8.052;2022-08-25T05:25:10;23.10;60.30
40960;DHT22;27842;52.272;8.052;2022-08-25T05:27:36;23.00;60.30
40960;DHT22;27842;52.272;8.052;2022-08-25T05:30:02;23.10;60.20
40960;DHT22;27842;52.272;8.052;2022-08-25T05:32:27;23.10;60.30
40960;DHT22;27842;52.272;8.052;2022-08-25T05:34:53;23.00;60.30
40960;DHT22;27842;52.272;8.052;2022-08-25T05:37:18;23.10;60.30
40960;DHT22;27842;52.272;8.052;2022-08-25T05:39:44;23.10;60.30
40960;DHT22;27842;52.272;8.052;2022-08-25T05:42:09;23.10;60.40
40960;DHT22;27842;52.272;8.052;2022-08-25T05:44:35;23.10;60.50
40960;DHT22;27842;52.272;8.052;2022-08-25T05:47:00;23.10;60.60
40960;DHT22;27842;52.272;8.052;2022-08-25T05:49:26;23.10;60.70
40960;DHT22;27842;52.272;8.052;2022-08-25T05:51:51;23.10;60.80
40960;DHT22;27842;52.272;8.052;2022-08-25T05:54:17;23.00;60.70
40960;DHT22;27842;52.272;8.052;2022-08-25T05:56:42;23.10;60.70
40960;DHT22;27842;52.272;8.052;2022-08-25T05:59:09;23.10;60.60
40960;DHT22;27842;52.272;8.052;2022-08-25T06:01:35;23.20;60.70
40960;DHT22;27842;52.272;8.052;2022-08-25T06:04:19;23.30;60.70
40960;DHT22;27842;52.272;8.052;2022-08-25T06:06:46;23.30;60.80
40960;DHT22;27842;52.272;8.052;2022-08-25T06:09:13;23.30;61.20
40960;DHT22;27842;52.272;8.052;2022-08-25T06:11:39;23.20;61.20
40960;DHT22;27842;52.272;8.052;2022-08-25T06:14:05;23.30;60.90
40960;DHT22;27842;52.272;8.052;2022-08-25T06:16:30;23.20;60.90
40960;DHT22;27842;52.272;8.052;2022-08-25T06:18:57;23.20;61.10
40960;DHT22;27842;52.272;8.052;2022-08-25T06:21:22;23.20;61.00
40960;DHT22;27842;52.272;8.052;2022-08-25T06:23:48;23.30;61.00
40960;DHT22;27842;52.272;8.052;2022-08-25T06:26:14;23.30;61.00
40960;DHT22;27842;52.272;8.052;2022-08-25T06:28:39;23.30;61.00
40960;DHT22;27842;52.272;8.052;2022-08-25T06:31:05;23.40;62.50
40960;DHT22;27842;52.272;8.052;2022-08-25T06:33:31;23.40;61.20
40960;DHT22;27842;52.272;8.052;2022-08-25T06:35:56;23.40;62.50
40960;DHT22;27842;52.272;8.052;2022-08-25T06:38:23;23.40;61.20
40960;DHT22;27842;52.272;8.052;2022-08-25T06:40:49;23.40;61.50
40960;DHT22;27842;52.272;8.052;2022-08-25T06:43:16;23.50;62.20
40960;DHT22;27842;52.272;8.052;2022-08-25T06:45:42;23.50;62.00
40960;DHT22;27842;52.272;8.052;2022-08-25T06:48:08;23.60;61.30
40960;DHT22;27842;52.272;8.052;2022-08-25T06:50:34;23.60;61.30
40960;DHT22;27842;52.272;8.052;2022-08-25T06:52:59;23.70;61.60
40960;DHT22;27842;52.272;8.052;2022-08-25T06:55:25;23.80;61.40
40960;DHT22;27842;52.272;8.052;2022-08-25T06:57:53;23.90;61.20
40960;DHT22;27842;52.272;8.052;2022-08-25T07:00:19;24.00;62.20
40960;DHT22;27842;52.272;8.052;2022-08-25T07:02:44;24.10;63.00
40960;DHT22;27842;52.272;8.052;2022-08-25T07:05:12;24.20;61.40
40960;DHT22;27842;52.272;8.052;2022-08-25T07:07:37;24.30;61.40
40960;DHT22;27842;52.272;8.052;2022-08-25T07:10:03;24.40;61.00
40960;DHT22;27842;52.272;8.052;2022-08-25T07:12:29;24.50;61.20
40960;DHT22;27842;52.272;8.052;2022-08-25T07:14:54;24.50;60.70
40960;DHT22;27842;52.272;8.052;2022-08-25T07:17:20;24.70;60.70
40960;DHT22;27842;52.272;8.052;2022-08-25T07:19:48;24.80;60.70
40960;DHT22;27842;52.272;8.052;2022-08-25T07:22:13;24.80;61.60
40960;DHT22;27842;52.272;8.052;2022-08-25T07:24:39;24.90;60.60
40960;DHT22;27842;52.272;8.052;2022-08-25T07:27:05;25.00;61.30
40960;DHT22;27842;52.272;8.052;2022-08-25T07:29:30;25.10;61.40
40960;DHT22;27842;52.272;8.052;2022-08-25T07:31:58;25.10;62.90
40960;DHT22;27842;52.272;8.052;2022-08-25T07:34:24;25.20;60.70
40960;DHT22;27842;52.272;8.052;2022-08-25T07:37:08;25.30;61.30
40960;DHT22;27842;52.272;8.052;2022-08-25T07:39:34;25.40;60.80
40960;DHT22;27842;52.272;8.052;2022-08-25T07:41:59;25.50;60.30
40960;DHT22;27842;52.272;8.052;2022-08-25T07:44:25;25.60;60.00
40960;DHT22;27842;52.272;8.052;2022-08-25T07:46:51;25.80;60.20
40960;DHT22;27842;52.272;8.052;2022-08-25T07:49:17;25.90;60.50
40960;DHT22;27842;52.272;8.052;2022-08-25T07:51:44;26.00;60.70
40960;DHT22;27842;52.272;8.052;2022-08-25T07:54:09;26.10;60.00
40960;DHT22;27842;52.272;8.052;2022-08-25T07:56:36;26.10;60.30
40960;DHT22;27842;52.272;8.052;2022-08-25T07:59:03;26.20;60.60
40960;DHT22;27842;52.272;8.052;2022-08-25T08:01:29;26.20;60.60
40960;DHT22;27842;52.272;8.052;2022-08-25T08:03:54;26.20;60.40
40960;DHT22;27842;52.272;8.052;2022-08-25T08:06:21;26.30;60.60
40960;DHT22;27842;52.272;8.052;2022-08-25T08:08:47;26.30;62.00
40960;DHT22;27842;52.272;8.052;2022-08-25T08:11:14;26.40;61.80
40960;DHT22;27842;52.272;8.052;2022-08-25T08:13:40;26.50;60.70
40960;DHT22;27842;52.272;8.052;2022-08-25T08:16:09;26.50;60.10
40960;DHT22;27842;52.272;8.052;2022-08-25T08:18:35;26.50;60.20
40960;DHT22;27842;52.272;8.052;2022-08-25T08:21:00;26.60;60.80
40960;DHT22;27842;52.272;8.052;2022-08-25T08:23:26;26.60;60.40
40960;DHT22;27842;52.272;8.052;2022-08-25T08:25:52;26.70;60.10
40960;DHT22;27842;52.272;8.052;2022-08-25T08:28:18;26.80;61.50
40960;DHT22;27842;52.272;8.052;2022-08-25T08:30:43;26.90;62.00
40960;DHT22;27842;52.272;8.052;2022-08-25T08:33:08;26.90;61.90
40960;DHT22;27842;52.272;8.052;2022-08-25T08:35:34;27.00;60.30
40960;DHT22;27842;52.272;8.052;2022-08-25T08:37:59;27.10;60.70
40960;DHT22;27842;52.272;8.052;2022-08-25T08:40:25;27.20;60.10
40960;DHT22;27842;52.272;8.052;2022-08-25T08:45:36;27.30;60.40
40960;DHT22;27842;52.272;8.052;2022-08-25T08:48:13;27.40;60.30
40960;DHT22;27842;52.272;8.052;2022-08-25T08:53:10;27.50;60.30
40960;DHT22;27842;52.272;8.052;2022-08-25T08:55:39;27.60;60.40
40960;DHT22;27842;52.272;8.052;2022-08-25T08:58:15;27.60;61.60
40960;DHT22;27842;52.272;8.052;2022-08-25T09:00:49;27.60;60.60
40960;DHT22;27842;52.272;8.052;2022-08-25T09:06:10;27.80;60.70
40960;DHT22;27842;52.272;8.052;2022-08-25T09:08:36;27.80;61.70
40960;DHT22;27842;52.272;8.052;2022-08-25T09:19:04;28.10;60.70
40960;DHT22;27842;52.272;8.052;2022-08-25T09:21:33;28.20;61.40
40960;DHT22;27842;52.272;8.052;2022-08-25T09:26:49;28.30;60.50
40960;DHT22;27842;52.272;8.052;2022-08-25T09:29:20;28.40;60.70
40960;DHT22;27842;52.272;8.052;2022-08-25T09:31:46;28.40;60.70
40960;DHT22;27842;52.272;8.052;2022-08-25T09:34:19;28.50;61.30
40960;DHT22;27842;52.272;8.052;2022-08-25T09:36:45;28.50;60.50
40960;DHT22;27842;52.272;8.052;2022-08-25T09:39:13;28.50;60.50
40960;DHT22;27842;52.272;8.052;2022-08-25T09:41:40;28.60;60.20
40960;DHT22;27842;52.272;8.052;2022-08-25T09:44:06;28.60;60.20
40960;DHT22;27842;52.272;8.052;2022-08-25T09:46:40;28.70;60.40
40960;DHT22;27842;52.272;8.052;2022-08-25T09:49:18;28.70;60.10
40960;DHT22;27842;52.272;8.052;2022-08-25T09:51:43;28.80;60.10
40960;DHT22;27842;52.272;8.052;2022-08-25T09:59:19;29.00;59.80
40960;DHT22;27842;52.272;8.052;2022-08-25T10:01:49;29.00;59.70
40960;DHT22;27842;52.272;8.052;2022-08-25T10:04:15;29.00;59.60
40960;DHT22;27842;52.272;8.052;2022-08-25T10:06:49;29.10;59.60
40960;DHT22;27842;52.272;8.052;2022-08-25T10:09:26;29.10;59.60
40960;DHT22;27842;52.272;8.052;2022-08-25T10:11:53;29.10;59.50
40960;DHT22;27842;52.272;8.052;2022-08-25T10:16:46;29.10;59.50
40960;DHT22;27842;52.272;8.052;2022-08-25T10:22:00;29.20;59.30
40960;DHT22;27842;52.272;8.052;2022-08-25T10:24:26;29.30;59.30
40960;DHT22;27842;52.272;8.052;2022-08-25T10:26:54;29.30;59.20
40960;DHT22;27842;52.272;8.052;2022-08-25T10:32:08;29.30;59.20
40960;DHT22;27842;52.272;8.052;2022-08-25T10:39:45;29.40;58.90
40960;DHT22;27842;52.272;8.052;2022-08-25T10:50:32;29.60;58.50
40960;DHT22;27842;52.272;8.052;2022-08-25T10:55:54;29.70;58.40
40960;DHT22;27842;52.272;8.052;2022-08-25T11:00:59;29.80;57.50
40960;DHT22;27842;52.272;8.052;2022-08-25T11:06:06;29.80;57.50
40960;DHT22;27842;52.272;8.052;2022-08-25T11:08:44;29.80;57.90
40960;DHT22;27842;52.272;8.052;2022-08-25T11:11:14;29.80;57.80
40960;DHT22;27842;52.272;8.052;2022-08-25T11:16:19;29.80;57.50
40960;DHT22;27842;52.272;8.052;2022-08-25T11:18:49;29.80;57.70
40960;DHT22;27842;52.272;8.052;2022-08-25T11:21:19;29.80;57.60
40960;DHT22;27842;52.272;8.052;2022-08-25T11:24:01;29.80;56.70
40960;DHT22;27842;52.272;8.052;2022-08-25T11:26:33;29.80;57.40
40960;DHT22;27842;52.272;8.052;2022-08-25T11:29:13;29.80;57.30
40960;DHT22;27842;52.272;8.052;2022-08-25T11:31:41;29.80;56.90
40960;DHT22;27842;52.272;8.052;2022-08-25T11:34:10;29.80;57.30
40960;DHT22;27842;52.272;8.052;2022-08-25T11:36:38;29.90;57.10
40960;DHT22;27842;52.272;8.052;2022-08-25T11:44:30;30.10;57.50
40960;DHT22;27842;52.272;8.052;2022-08-25T11:51:50;30.20;58.00
40960;DHT22;27842;52.272;8.052;2022-08-25T11:54:17;30.20;57.10
40960;DHT22;27842;52.272;8.052;2022-08-25T11:56:50;30.30;56.90
40960;DHT22;27842;52.272;8.052;2022-08-25T11:59:59;30.30;56.70
40960;DHT22;27842;52.272;8.052;2022-08-25T12:02:02;30.40;55.40
40960;DHT22;27842;52.272;8.052;2022-08-25T12:04:40;30.50;55.90
40960;DHT22;27842;52.272;8.052;2022-08-25T12:18:08;31.40;55.40
40960;DHT22;27842;52.272;8.052;2022-08-25T12:23:34;31.70;55.10
40960;DHT22;27842;52.272;8.052;2022-08-25T12:26:01;31.90;54.90
40960;DHT22;27842;52.272;8.052;2022-08-25T12:36:32;32.60;53.80
40960;DHT22;27842;52.272;8.052;2022-08-25T12:41:56;32.80;54.30
40960;DHT22;27842;52.272;8.052;2022-08-25T12:44:36;32.90;53.70
40960;DHT22;27842;52.272;8.052;2022-08-25T12:47:24;33.10;53.70
40960;DHT22;27842;52.272;8.052;2022-08-25T12:49:51;33.30;53.70
40960;DHT22;27842;52.272;8.052;2022-08-25T12:52:20;33.30;53.50
40960;DHT22;27842;52.272;8.052;2022-08-25T12:54:52;33.50;53.60
40960;DHT22;27842;52.272;8.052;2022-08-25T12:59:47;33.80;52.60
40960;DHT22;27842;52.272;8.052;2022-08-25T13:02:39;33.90;52.20
40960;DHT22;27842;52.272;8.052;2022-08-25T13:05:14;33.90;52.60
40960;DHT22;27842;52.272;8.052;2022-08-25T13:08:00;33.90;52.10
40960;DHT22;27842;52.272;8.052;2022-08-25T13:10:40;33.90;52.20
40960;DHT22;27842;52.272;8.052;2022-08-25T13:13:13;33.80;52.20
40960;DHT22;27842;52.272;8.052;2022-08-25T13:15:42;33.70;51.70
40960;DHT22;27842;52.272;8.052;2022-08-25T13:20:38;33.60;52.10
40960;DHT22;27842;52.272;8.052;2022-08-25T13:23:03;33.60;52.00
40960;DHT22;27842;52.272;8.052;2022-08-25T13:25:29;33.60;51.70
40960;DHT22;27842;52.272;8.052;2022-08-25T13:27:58;33.60;51.80
40960;DHT22;27842;52.272;8.052;2022-08-25T13:30:28;33.70;51.70
40960;DHT22;27842;52.272;8.052;2022-08-25T13:32:54;33.80;51.70
40960;DHT22;27842;52.272;8.052;2022-08-25T13:35:22;33.80;51.40
40960;DHT22;27842;52.272;8.052;2022-08-25T13:37:48;33.70;51.10
40960;DHT22;27842;52.272;8.052;2022-08-25T13:42:46;33.80;51.80
40960;DHT22;27842;52.272;8.052;2022-08-25T13:45:14;33.80;51.60
40960;DHT22;27842;52.272;8.052;2022-08-25T13:47:40;33.80;51.60
40960;DHT22;27842;52.272;8.052;2022-08-25T13:50:20;33.80;50.90
40960;DHT22;27842;52.272;8.052;2022-08-25T13:52:50;34.00;51.10
40960;DHT22;27842;52.272;8.052;2022-08-25T13:55:21;34.00;50.30
40960;DHT22;27842;52.272;8.052;2022-08-25T13:57:46;34.00;50.40
40960;DHT22;27842;52.272;8.052;2022-08-25T14:00:12;34.00;50.70
40960;DHT22;27842;52.272;8.052;2022-08-25T14:02:50;34.00;51.50
40960;DHT22;27842;52.272;8.052;2022-08-25T14:05:28;34.10;51.00
40960;DHT22;27842;52.272;8.052;2022-08-25T14:07:55;34.10;50.80
40960;DHT22;27842;52.272;8.052;2022-08-25T14:10:31;34.10;51.30
40960;DHT22;27842;52.272;8.052;2022-08-25T14:13:08;34.10;51.40
40960;DHT22;27842;52.272;8.052;2022-08-25T14:15:34;34.10;50.60
40960;DHT22;27842;52.272;8.052;2022-08-25T14:20:26;34.20;50.80
40960;DHT22;27842;52.272;8.052;2022-08-25T14:22:53;34.30;50.50
40960;DHT22;27842;52.272;8.052;2022-08-25T14:25:19;34.20;49.70
40960;DHT22;27842;52.272;8.052;2022-08-25T14:27:45;34.20;49.40
40960;DHT22;27842;52.272;8.052;2022-08-25T14:30:18;34.20;50.20
40960;DHT22;27842;52.272;8.052;2022-08-25T14:32:43;34.20;50.60
40960;DHT22;27842;52.272;8.052;2022-08-25T14:35:09;34.10;49.70
40960;DHT22;27842;52.272;8.052;2022-08-25T14:37:34;34.10;50.70
40960;DHT22;27842;52.272;8.052;2022-08-25T14:40:00;34.00;49.70
40960;DHT22;27842;52.272;8.052;2022-08-25T14:42:25;33.90;50.70
40960;DHT22;27842;52.272;8.052;2022-08-25T14:44:51;33.80;50.70
40960;DHT22;27842;52.272;8.052;2022-08-25T14:47:16;33.80;49.50
40960;DHT22;27842;52.272;8.052;2022-08-25T14:49:43;33.70;50.60
40960;DHT22;27842;52.272;8.052;2022-08-25T14:52:26;33.70;50.90
40960;DHT22;27842;52.272;8.052;2022-08-25T14:54:53;33.60;50.00
40960;DHT22;27842;52.272;8.052;2022-08-25T14:57:18;33.40;50.90
40960;DHT22;27842;52.272;8.052;2022-08-25T14:59:45;33.20;50.50
40960;DHT22;27842;52.272;8.052;2022-08-25T15:02:11;33.20;51.30
40960;DHT22;27842;52.272;8.052;2022-08-25T15:04:38;33.20;51.40
40960;DHT22;27842;52.272;8.052;2022-08-25T15:07:04;33.10;51.40
40960;DHT22;27842;52.272;8.052;2022-08-25T15:09:52;33.10;51.20
40960;DHT22;27842;52.272;8.052;2022-08-25T15:12:17;33.00;51.10
40960;DHT22;27842;52.272;8.052;2022-08-25T15:14:43;32.90;50.80
40960;DHT22;27842;52.272;8.052;2022-08-25T15:17:09;32.80;50.80
40960;DHT22;27842;52.272;8.052;2022-08-25T15:19:34;32.70;51.20
40960;DHT22;27842;52.272;8.052;2022-08-25T15:22:00;32.60;51.50
40960;DHT22;27842;52.272;8.052;2022-08-25T15:24:26;32.50;51.40
40960;DHT22;27842;52.272;8.052;2022-08-25T15:26:53;32.40;51.50
40960;DHT22;27842;52.272;8.052;2022-08-25T15:29:19;32.30;51.20
40960;DHT22;27842;52.272;8.052;2022-08-25T15:31:45;32.20;51.70
40960;DHT22;27842;52.272;8.052;2022-08-25T15:34:11;32.20;51.70
40960;DHT22;27842;52.272;8.052;2022-08-25T15:36:36;32.10;51.90
40960;DHT22;27842;52.272;8.052;2022-08-25T15:39:03;32.00;52.00
40960;DHT22;27842;52.272;8.052;2022-08-25T15:41:28;31.90;51.60
40960;DHT22;27842;52.272;8.052;2022-08-25T15:43:54;31.90;52.20
40960;DHT22;27842;52.272;8.052;2022-08-25T15:46:20;31.90;52.10
40960;DHT22;27842;52.272;8.052;2022-08-25T15:48:48;31.80;51.90
40960;DHT22;27842;52.272;8.052;2022-08-25T15:51:14;31.80;52.30
40960;DHT22;27842;52.272;8.052;2022-08-25T15:53:39;31.70;52.30
40960;DHT22;27842;52.272;8.052;2022-08-25T15:56:06;31.70;52.40
40960;DHT22;27842;52.272;8.052;2022-08-25T15:58:32;31.70;52.20
40960;DHT22;27842;52.272;8.052;2022-08-25T16:00:59;31.70;52.30
40960;DHT22;27842;52.272;8.052;2022-08-25T16:03:24;31.70;52.60
40960;DHT22;27842;52.272;8.052;2022-08-25T16:05:50;31.70;52.30
40960;DHT22;27842;52.272;8.052;2022-08-25T16:08:15;31.60;52.20
40960;DHT22;27842;52.272;8.052;2022-08-25T16:10:41;31.60;51.90
40960;DHT22;27842;52.272;8.052;2022-08-25T16:13:07;31.50;52.10
40960;DHT22;27842;52.272;8.052;2022-08-25T16:15:33;31.50;52.50
40960;DHT22;27842;52.272;8.052;2022-08-25T16:18:00;31.50;52.40
40960;DHT22;27842;52.272;8.052;2022-08-25T16:20:26;31.50;52.70
40960;DHT22;27842;52.272;8.052;2022-08-25T16:22:52;31.40;51.80
40960;DHT22;27842;52.272;8.052;2022-08-25T16:25:17;31.40;52.80
40960;DHT22;27842;52.272;8.052;2022-08-25T16:27:43;31.40;52.80
40960;DHT22;27842;52.272;8.052;2022-08-25T16:30:09;31.30;52.80
40960;DHT22;27842;52.272;8.052;2022-08-25T16:32:36;31.30;52.60
40960;DHT22;27842;52.272;8.052;2022-08-25T16:35:02;31.20;52.70
40960;DHT22;27842;52.272;8.052;2022-08-25T16:37:28;31.20;52.60
40960;DHT22;27842;52.272;8.052;2022-08-25T16:39:54;31.20;53.20
40960;DHT22;27842;52.272;8.052;2022-08-25T16:42:20;31.20;52.70
40960;DHT22;27842;52.272;8.052;2022-08-25T16:44:45;31.20;53.80
40960;DHT22;27842;52.272;8.052;2022-08-25T16:47:11;31.20;53.10
40960;DHT22;27842;52.272;8.052;2022-08-25T16:49:38;31.20;53.00
40960;DHT22;27842;52.272;8.052;2022-08-25T16:52:04;31.30;53.00
40960;DHT22;27842;52.272;8.052;2022-08-25T16:54:50;31.20;52.60
40960;DHT22;27842;52.272;8.052;2022-08-25T16:57:34;31.20;52.40
40960;DHT22;27842;52.272;8.052;2022-08-25T16:59:59;31.10;52.70
40960;DHT22;27842;52.272;8.052;2022-08-25T17:02:25;31.10;53.00
40960;DHT22;27842;52.272;8.052;2022-08-25T17:04:50;31.10;53.10
40960;DHT22;27842;52.272;8.052;2022-08-25T17:07:16;31.10;53.20
40960;DHT22;27842;52.272;8.052;2022-08-25T17:09:41;31.10;53.10
40960;DHT22;27842;52.272;8.052;2022-08-25T17:12:07;31.00;53.10
40960;DHT22;27842;52.272;8.052;2022-08-25T17:14:33;31.00;53.20
40960;DHT22;27842;52.272;8.052;2022-08-25T17:16:59;31.00;53.10
40960;DHT22;27842;52.272;8.052;2022-08-25T17:19:24;31.00;53.30